createdAt,value
2023-05-14T00:00:30.054Z,92.80
2023-05-14T00:02:57.024Z,94.10
2023-05-14T00:05:24.228Z,93.60
2023-05-14T00:07:51.208Z,93.80
2023-05-14T00:10:20.410Z,93.80
2023-05-14T00:12:47.950Z,94.00
2023-05-14T00:15:14.872Z,94.50
2023-05-14T00:17:42.500Z,94.30
2023-05-14T00:20:12.138Z,95.10
2023-05-14T00:22:40.135Z,95.10
2023-05-14T00:25:08.869Z,95.70
2023-05-14T00:27:37.836Z,95.50
2023-05-14T00:30:07.003Z,95.60
2023-05-14T00:32:34.452Z,95.70
2023-05-14T00:35:03.158Z,95.80
2023-05-14T00:37:30.386Z,96.50
2023-05-14T00:39:58.324Z,95.90
2023-05-14T00:42:27.129Z,95.90
2023-05-14T00:44:54.193Z,95.90
2023-05-14T00:47:21.423Z,96.00
2023-05-14T00:49:48.478Z,96.80
2023-05-14T00:52:18.061Z,96.60
2023-05-14T00:54:48.050Z,97.30
2023-05-14T00:57:15.113Z,96.80
2023-05-14T00:59:42.772Z,97.40
2023-05-14T01:02:11.603Z,97.00
2023-05-14T01:04:39.498Z,97.20
2023-05-14T01:07:53.474Z,97.50
2023-05-14T01:10:34.952Z,98.10
2023-05-14T01:13:30.954Z,97.70
2023-05-14T01:16:00.601Z,98.00
2023-05-14T01:18:30.941Z,98.00
2023-05-14T01:20:58.565Z,98.20
2023-05-14T01:23:25.453Z,98.20
2023-05-14T01:25:53.634Z,99.20
2023-05-14T01:28:32.264Z,98.90
2023-05-14T01:31:19.694Z,99.10
2023-05-14T01:33:49.715Z,99.90
2023-05-14T01:36:16.844Z,99.90
2023-05-14T01:38:47.191Z,99.70
2023-05-14T01:41:16.402Z,99.90
2023-05-14T01:43:44.698Z,99.90
2023-05-14T01:46:11.812Z,99.90
2023-05-14T01:48:38.822Z,99.80
2023-05-14T01:51:06.606Z,99.80
2023-05-14T01:53:34.964Z,99.90
2023-05-14T01:56:02.328Z,99.90
2023-05-14T01:58:29.252Z,99.90
2023-05-14T02:00:56.180Z,99.90
2023-05-14T02:03:23.044Z,99.90
2023-05-14T02:05:50.135Z,99.90
2023-05-14T02:08:17.031Z,99.90
2023-05-14T02:10:43.984Z,99.90
2023-05-14T02:13:10.869Z,99.90
2023-05-14T02:15:38.590Z,99.90
2023-05-14T02:18:05.926Z,99.90
2023-05-14T02:20:33.055Z,99.90
2023-05-14T02:23:00.191Z,99.90
2023-05-14T02:25:27.139Z,99.90
2023-05-14T02:27:54.200Z,99.90
2023-05-14T02:30:22.919Z,99.90
2023-05-14T02:32:50.295Z,99.90
2023-05-14T02:35:17.358Z,99.90
2023-05-14T02:37:44.248Z,99.90
2023-05-14T02:40:11.651Z,99.90
2023-05-14T02:42:38.564Z,99.90
2023-05-14T02:45:06.495Z,99.90
2023-05-14T02:47:36.026Z,99.90
2023-05-14T02:50:06.412Z,99.90
2023-05-14T02:52:33.387Z,99.90
2023-05-14T02:55:00.561Z,99.90
2023-05-14T02:57:27.482Z,99.90
2023-05-14T02:59:54.498Z,99.90
2023-05-14T03:02:22.134Z,99.90
2023-05-14T03:04:49.738Z,99.90
2023-05-14T03:07:16.962Z,99.90
2023-05-14T03:09:44.136Z,99.90
2023-05-14T03:12:11.443Z,99.90
2023-05-14T03:14:38.450Z,99.90
2023-05-14T03:17:05.784Z,99.90
2023-05-14T03:19:32.743Z,99.90
2023-05-14T03:21:59.778Z,99.90
2023-05-14T03:24:26.808Z,99.90
2023-05-14T03:26:53.737Z,99.90
2023-05-14T03:29:20.858Z,99.90
2023-05-14T03:31:47.869Z,99.90
2023-05-14T03:34:15.276Z,99.90
2023-05-14T03:36:42.213Z,99.90
2023-05-14T03:39:09.708Z,99.90
2023-05-14T03:41:37.556Z,99.90
2023-05-14T03:44:06.371Z,99.90
2023-05-14T03:46:33.277Z,99.90
2023-05-14T03:49:00.369Z,99.90
2023-05-14T03:51:27.851Z,99.90
2023-05-14T03:53:54.850Z,99.90
2023-05-14T03:56:22.609Z,99.90
2023-05-14T03:58:49.574Z,99.90
2023-05-14T04:01:16.621Z,99.90
2023-05-14T04:03:43.850Z,99.90
2023-05-14T04:06:11.462Z,99.90
2023-05-14T04:08:38.375Z,99.90
2023-05-14T04:11:06.144Z,99.90
2023-05-14T04:13:33.120Z,99.90
2023-05-14T04:16:00.581Z,99.90
2023-05-14T04:18:27.695Z,99.90
2023-05-14T04:20:55.062Z,99.90
2023-05-14T04:23:22.146Z,99.90
2023-05-14T04:25:49.293Z,99.90
2023-05-14T04:28:16.288Z,99.90
2023-05-14T04:30:43.209Z,99.90
2023-05-14T04:33:10.378Z,99.90
2023-05-14T04:35:37.562Z,99.90
2023-05-14T04:38:04.599Z,99.90
2023-05-14T04:40:32.134Z,99.90
2023-05-14T04:42:59.059Z,99.90
2023-05-14T04:45:26.523Z,99.90
2023-05-14T04:47:53.557Z,99.90
2023-05-14T04:50:20.650Z,99.90
2023-05-14T04:52:47.819Z,99.90
2023-05-14T04:55:14.777Z,99.90
2023-05-14T04:57:41.718Z,99.90
2023-05-14T05:00:12.215Z,99.90
2023-05-14T05:02:39.412Z,99.90
2023-05-14T05:05:06.569Z,99.90
2023-05-14T05:07:33.603Z,99.90
2023-05-14T05:10:00.665Z,99.90
2023-05-14T05:12:30.084Z,99.90
2023-05-14T05:14:57.755Z,99.90
2023-05-14T05:17:25.469Z,99.90
2023-05-14T05:19:52.784Z,99.90
2023-05-14T05:22:20.306Z,99.90
2023-05-14T05:24:49.827Z,99.90
2023-05-14T05:27:17.132Z,99.90
2023-05-14T05:29:44.732Z,99.90
2023-05-14T05:32:11.973Z,99.90
2023-05-14T05:34:39.341Z,99.90
2023-05-14T05:37:06.352Z,99.90
2023-05-14T05:39:35.219Z,99.90
2023-05-14T05:42:02.924Z,99.90
2023-05-14T05:44:29.870Z,99.90
2023-05-14T05:46:57.875Z,99.90
2023-05-14T05:49:24.874Z,99.90
2023-05-14T05:51:51.815Z,99.90
2023-05-14T05:54:18.742Z,99.90
2023-05-14T05:56:45.811Z,99.90
2023-05-14T05:59:12.768Z,99.90
2023-05-14T06:01:41.454Z,99.90
2023-05-14T06:04:08.412Z,99.90
2023-05-14T06:06:35.602Z,99.90
2023-05-14T06:09:02.544Z,99.90
2023-05-14T06:11:29.462Z,99.90
2023-05-14T06:13:56.427Z,99.90
2023-05-14T06:16:23.430Z,99.90
2023-05-14T06:18:52.287Z,99.90
2023-05-14T06:21:19.334Z,99.90
2023-05-14T06:23:46.287Z,99.90
2023-05-14T06:26:13.271Z,99.90
2023-05-14T06:28:40.232Z,99.90
2023-05-14T06:31:07.271Z,99.90
2023-05-14T06:33:34.206Z,99.90
2023-05-14T06:36:05.373Z,99.90
2023-05-14T06:38:33.474Z,99.90
2023-05-14T06:41:00.398Z,99.90
2023-05-14T06:43:28.526Z,99.90
2023-05-14T06:45:55.554Z,99.90
2023-05-14T06:48:22.724Z,99.90
2023-05-14T06:50:50.283Z,99.90
2023-05-14T06:53:17.524Z,99.90
2023-05-14T06:55:45.010Z,99.90
2023-05-14T06:58:11.973Z,99.90
2023-05-14T07:00:39.420Z,99.90
2023-05-14T07:03:06.435Z,99.90
2023-05-14T07:05:33.424Z,99.90
2023-05-14T07:08:00.447Z,99.90
2023-05-14T07:10:27.476Z,99.90
2023-05-14T07:12:54.572Z,99.90
2023-05-14T07:15:21.554Z,99.90
2023-05-14T07:17:49.053Z,99.90
2023-05-14T07:20:16.058Z,99.90
2023-05-14T07:22:43.070Z,99.90
2023-05-14T07:25:10.291Z,99.90
2023-05-14T07:27:37.286Z,99.90
2023-05-14T07:30:08.251Z,99.90
2023-05-14T07:32:35.380Z,99.90
2023-05-14T07:35:02.304Z,99.90
2023-05-14T07:37:32.255Z,99.90
2023-05-14T07:39:59.181Z,99.90
2023-05-14T07:42:35.739Z,99.90
2023-05-14T07:45:05.338Z,99.90
2023-05-14T07:47:32.935Z,99.90
2023-05-14T07:50:00.279Z,99.90
2023-05-14T07:52:27.357Z,99.90
2023-05-14T07:54:55.011Z,99.40
2023-05-14T07:57:22.119Z,99.40
2023-05-14T07:59:49.773Z,99.30
2023-05-14T08:02:17.562Z,99.30
2023-05-14T08:04:45.571Z,99.00
2023-05-14T08:07:12.681Z,99.30
2023-05-14T08:09:39.920Z,98.70
2023-05-14T08:12:07.601Z,98.90
2023-05-14T08:14:34.778Z,98.60
2023-05-14T08:17:01.774Z,98.40
2023-05-14T08:19:28.728Z,98.50
2023-05-14T08:21:55.897Z,98.50
2023-05-14T08:24:22.744Z,98.20
2023-05-14T08:26:49.785Z,97.80
2023-05-14T08:29:16.927Z,97.70
2023-05-14T08:31:44.122Z,97.70
2023-05-14T08:34:11.210Z,97.80
2023-05-14T08:36:39.482Z,98.20
2023-05-14T08:39:07.828Z,97.30
2023-05-14T08:41:35.347Z,97.60
2023-05-14T08:44:10.823Z,97.50
2023-05-14T08:46:39.329Z,95.70
2023-05-14T08:49:53.502Z,95.90
2023-05-14T08:52:22.789Z,95.20
2023-05-14T08:54:54.050Z,95.80
2023-05-14T08:57:24.833Z,94.60
2023-05-14T08:59:54.002Z,94.50
2023-05-14T09:02:27.504Z,94.30
2023-05-14T09:05:07.356Z,94.70
2023-05-14T09:07:34.341Z,94.20
2023-05-14T09:10:02.761Z,93.60
2023-05-14T09:12:35.553Z,93.90
2023-05-14T09:15:03.821Z,93.10
2023-05-14T09:17:30.767Z,92.00
2023-05-14T09:19:58.446Z,91.50
2023-05-14T09:22:25.437Z,91.70
2023-05-14T09:25:12.319Z,91.80
2023-05-14T09:27:40.568Z,86.40
2023-05-14T09:30:13.373Z,90.60
2023-05-14T09:32:46.281Z,90.60
2023-05-14T09:35:22.612Z,90.30
2023-05-14T09:37:54.796Z,87.90
2023-05-14T09:40:24.665Z,90.10
2023-05-14T09:42:52.297Z,89.10
2023-05-14T09:45:19.283Z,88.00
2023-05-14T09:47:46.652Z,87.10
2023-05-14T09:50:14.064Z,88.40
2023-05-14T09:52:41.104Z,87.80
2023-05-14T09:55:08.701Z,86.00
2023-05-14T09:57:36.709Z,86.30
2023-05-14T10:00:05.788Z,84.70
2023-05-14T10:02:38.794Z,85.70
2023-05-14T10:05:07.854Z,84.60
2023-05-14T10:07:47.748Z,85.10
2023-05-14T10:10:26.681Z,82.20
2023-05-14T10:13:00.259Z,82.10
2023-05-14T10:15:57.823Z,84.20
2023-05-14T10:18:31.692Z,83.90
2023-05-14T10:21:07.792Z,84.80
2023-05-14T10:23:38.064Z,83.50
2023-05-14T10:26:06.605Z,83.20
2023-05-14T10:28:34.575Z,83.00
2023-05-14T10:31:01.916Z,82.80
2023-05-14T10:33:29.065Z,82.40
2023-05-14T10:36:06.135Z,82.00
2023-05-14T10:38:36.388Z,80.80
2023-05-14T10:41:21.597Z,77.90
2023-05-14T10:43:48.942Z,77.20
2023-05-14T10:46:16.388Z,76.70
2023-05-14T10:48:44.596Z,78.40
2023-05-14T10:51:12.837Z,78.70
2023-05-14T10:53:43.127Z,75.00
2023-05-14T10:56:14.728Z,76.40
2023-05-14T10:58:46.429Z,76.10
2023-05-14T11:01:14.316Z,71.90
2023-05-14T11:03:47.051Z,73.90
2023-05-14T11:06:16.483Z,73.40
2023-05-14T11:08:44.617Z,73.70
2023-05-14T11:11:12.450Z,73.60
2023-05-14T11:13:39.583Z,73.20
2023-05-14T11:16:21.753Z,71.40
2023-05-14T11:19:02.337Z,70.60
2023-05-14T11:21:31.588Z,66.80
2023-05-14T11:24:01.345Z,66.20
2023-05-14T11:26:28.410Z,66.50
2023-05-14T11:28:55.834Z,68.10
2023-05-14T11:31:24.145Z,69.50
2023-05-14T11:33:52.744Z,67.10
2023-05-14T11:36:19.906Z,67.20
2023-05-14T11:38:51.483Z,67.20
2023-05-14T11:41:21.326Z,65.60
2023-05-14T11:43:49.111Z,67.00
2023-05-14T11:46:19.204Z,63.50
2023-05-14T11:48:46.438Z,64.30
2023-05-14T11:51:13.428Z,64.80
2023-05-14T11:53:40.507Z,63.20
2023-05-14T11:56:09.653Z,64.80
2023-05-14T11:58:37.269Z,65.50
2023-05-14T12:01:04.774Z,63.90
2023-05-14T12:03:31.902Z,63.90
2023-05-14T12:06:01.704Z,63.80
2023-05-14T12:08:31.736Z,62.10
2023-05-14T12:11:00.996Z,61.40
2023-05-14T12:13:29.980Z,59.30
2023-05-14T12:16:00.446Z,59.20
2023-05-14T12:18:32.406Z,60.70
2023-05-14T12:21:08.407Z,60.20
2023-05-14T12:23:38.291Z,59.50
2023-05-14T12:26:08.873Z,60.70
2023-05-14T12:28:43.344Z,57.40
2023-05-14T12:31:10.956Z,56.60
2023-05-14T12:33:38.056Z,55.40
2023-05-14T12:36:20.685Z,57.20
2023-05-14T12:38:50.759Z,57.00
2023-05-14T12:41:18.532Z,57.10
2023-05-14T12:43:49.331Z,57.00
2023-05-14T12:46:17.146Z,57.60
2023-05-14T12:48:44.121Z,58.30
2023-05-14T12:51:11.066Z,58.00
2023-05-14T12:53:37.993Z,56.40
2023-05-14T12:56:05.802Z,55.00
2023-05-14T12:58:32.885Z,54.80
2023-05-14T13:00:59.874Z,53.60
2023-05-14T13:03:26.833Z,52.40
2023-05-14T13:05:54.645Z,51.40
2023-05-14T13:08:25.009Z,48.10
2023-05-14T13:10:54.071Z,48.30
2023-05-14T13:13:21.476Z,47.90
2023-05-14T13:15:48.788Z,46.00
2023-05-14T13:18:17.750Z,47.00
2023-05-14T13:20:47.492Z,47.60
2023-05-14T13:23:15.037Z,46.00
2023-05-14T13:25:42.125Z,43.90
2023-05-14T13:28:09.643Z,43.80
2023-05-14T13:30:36.669Z,43.40
2023-05-14T13:33:04.000Z,43.40
2023-05-14T13:35:31.087Z,44.00
2023-05-14T13:37:57.944Z,45.20
2023-05-14T13:40:24.988Z,46.40
2023-05-14T13:42:51.915Z,47.70
2023-05-14T13:45:18.944Z,48.20
2023-05-14T13:47:46.344Z,48.80
2023-05-14T13:50:14.042Z,47.80
2023-05-14T13:52:41.033Z,47.50
2023-05-14T13:55:08.514Z,46.80
2023-05-14T13:57:35.424Z,46.90
2023-05-14T14:00:04.648Z,47.40
2023-05-14T14:02:32.316Z,47.40
2023-05-14T14:05:01.443Z,46.60
2023-05-14T14:07:28.413Z,47.50
2023-05-14T14:09:55.392Z,47.90
2023-05-14T14:12:22.429Z,48.30
2023-05-14T14:14:49.398Z,48.50
2023-05-14T14:17:16.534Z,48.60
2023-05-14T14:19:43.475Z,49.20
2023-05-14T14:22:12.539Z,49.10
2023-05-14T14:24:39.523Z,49.30
2023-05-14T14:27:06.412Z,49.10
2023-05-14T14:29:34.406Z,49.60
2023-05-14T14:32:01.512Z,49.50
2023-05-14T14:34:28.603Z,48.70
2023-05-14T14:36:55.570Z,49.50
2023-05-14T14:39:25.338Z,48.90
2023-05-14T14:41:52.415Z,49.10
2023-05-14T14:44:19.458Z,49.00
2023-05-14T14:46:47.555Z,50.20
2023-05-14T14:49:14.490Z,51.30
2023-05-14T14:51:41.553Z,50.60
2023-05-14T14:54:08.491Z,50.10
2023-05-14T14:56:35.420Z,50.10
2023-05-14T14:59:02.392Z,50.40
2023-05-14T15:01:29.656Z,51.30
2023-05-14T15:03:56.594Z,50.90
2023-05-14T15:06:23.684Z,50.50
2023-05-14T15:08:53.063Z,50.70
2023-05-14T15:11:20.071Z,50.80
2023-05-14T15:13:46.999Z,51.40
2023-05-14T15:16:14.127Z,51.90
2023-05-14T15:18:41.064Z,52.30
2023-05-14T15:21:08.095Z,52.50
2023-05-14T15:23:35.232Z,53.00
2023-05-14T15:26:02.234Z,53.40
2023-05-14T15:28:29.168Z,53.90
2023-05-14T15:30:56.130Z,54.00
2023-05-14T15:33:23.652Z,53.90
2023-05-14T15:35:51.250Z,53.70
2023-05-14T15:38:18.133Z,53.10
2023-05-14T15:40:45.292Z,53.30
2023-05-14T15:43:12.457Z,53.60
2023-05-14T15:45:39.445Z,53.70
2023-05-14T15:48:06.541Z,53.60
2023-05-14T15:50:33.602Z,53.60
2023-05-14T15:53:00.951Z,53.30
2023-05-14T15:55:28.050Z,53.40
2023-05-14T15:57:55.033Z,52.80
2023-05-14T16:00:22.180Z,52.80
2023-05-14T16:02:49.111Z,52.70
2023-05-14T16:05:16.251Z,53.10
2023-05-14T16:07:43.720Z,53.40
2023-05-14T16:10:11.148Z,52.50
2023-05-14T16:12:38.131Z,52.40
2023-05-14T16:15:07.996Z,53.10
2023-05-14T16:17:35.105Z,53.90
2023-05-14T16:20:04.740Z,54.40
2023-05-14T16:22:36.009Z,54.70
2023-05-14T16:25:04.939Z,54.20
2023-05-14T16:27:32.111Z,54.70
2023-05-14T16:29:59.446Z,55.20
2023-05-14T16:32:26.631Z,55.60
2023-05-14T16:34:53.715Z,55.70
2023-05-14T16:37:20.759Z,56.00
2023-05-14T16:39:48.379Z,55.80
2023-05-14T16:42:15.588Z,56.70
2023-05-14T16:44:42.648Z,57.10
2023-05-14T16:47:11.090Z,57.30
2023-05-14T16:49:38.054Z,57.30
2023-05-14T16:52:05.932Z,57.30
2023-05-14T16:54:32.913Z,57.70
2023-05-14T16:56:59.845Z,57.90
2023-05-14T16:59:26.837Z,58.00
2023-05-14T17:01:53.938Z,58.50
2023-05-14T17:04:21.228Z,59.00
2023-05-14T17:06:48.374Z,59.40
2023-05-14T17:09:15.309Z,59.70
2023-05-14T17:11:42.600Z,59.80
2023-05-14T17:14:09.873Z,60.30
2023-05-14T17:16:38.750Z,60.60
2023-05-14T17:19:05.915Z,61.80
2023-05-14T17:21:32.913Z,63.00
2023-05-14T17:23:59.871Z,65.10
2023-05-14T17:26:26.943Z,67.50
2023-05-14T17:28:53.937Z,70.00
2023-05-14T17:31:22.344Z,71.60
2023-05-14T17:33:49.565Z,73.90
2023-05-14T17:36:16.688Z,73.30
2023-05-14T17:38:43.661Z,73.90
2023-05-14T17:41:10.688Z,76.90
2023-05-14T17:43:37.797Z,77.60
2023-05-14T17:46:05.391Z,78.40
2023-05-14T17:48:32.814Z,79.00
2023-05-14T17:50:59.761Z,80.70
2023-05-14T17:53:26.677Z,79.70
2023-05-14T17:55:53.633Z,80.80
2023-05-14T17:58:21.003Z,82.70
2023-05-14T18:00:47.887Z,84.00
2023-05-14T18:03:15.155Z,85.00
2023-05-14T18:05:42.363Z,86.20
2023-05-14T18:08:09.651Z,86.90
2023-05-14T18:10:36.631Z,87.70
2023-05-14T18:13:03.828Z,87.80
2023-05-14T18:15:31.580Z,89.80
2023-05-14T18:17:58.961Z,89.30
2023-05-14T18:20:25.950Z,90.10
2023-05-14T18:22:53.074Z,90.20
2023-05-14T18:25:20.126Z,90.30
2023-05-14T18:27:48.248Z,90.20
2023-05-14T18:30:16.085Z,90.70
2023-05-14T18:32:44.935Z,91.00
2023-05-14T18:35:13.662Z,91.80
2023-05-14T18:37:42.082Z,92.20
2023-05-14T18:40:09.703Z,92.00
2023-05-14T18:42:36.939Z,92.00
2023-05-14T18:45:04.649Z,91.80
2023-05-14T18:47:33.351Z,91.90
2023-05-14T18:50:02.003Z,92.60
2023-05-14T18:52:29.452Z,92.90
2023-05-14T18:54:57.900Z,92.80
2023-05-14T18:57:29.390Z,94.00
2023-05-14T18:59:56.411Z,93.30
2023-05-14T19:02:23.565Z,93.50
2023-05-14T19:04:52.363Z,94.00
2023-05-14T19:07:21.324Z,94.50
2023-05-14T19:09:48.722Z,94.10
2023-05-14T19:12:16.224Z,94.40
2023-05-14T19:14:43.340Z,94.70
2023-05-14T19:17:11.097Z,94.70
2023-05-14T19:19:41.550Z,94.90
2023-05-14T19:22:08.605Z,95.40
2023-05-14T19:24:37.700Z,95.80
2023-05-14T19:27:04.905Z,95.80
2023-05-14T19:29:36.660Z,95.80
2023-05-14T19:32:04.750Z,96.30
2023-05-14T19:34:31.722Z,96.60
2023-05-14T19:36:58.812Z,96.50
2023-05-14T19:39:25.902Z,96.90
2023-05-14T19:41:53.075Z,97.00
2023-05-14T19:44:19.966Z,97.00
2023-05-14T19:46:47.507Z,96.80
2023-05-14T19:49:14.543Z,96.90
2023-05-14T19:51:41.483Z,97.30
2023-05-14T19:54:08.648Z,97.70
2023-05-14T19:56:35.890Z,97.50
2023-05-14T19:59:02.855Z,98.00
2023-05-14T20:01:30.167Z,98.30
2023-05-14T20:03:57.108Z,98.90
2023-05-14T20:06:24.060Z,98.20
2023-05-14T20:08:51.604Z,98.40
2023-05-14T20:11:19.702Z,98.60
2023-05-14T20:13:46.755Z,98.50
2023-05-14T20:16:16.921Z,99.10
2023-05-14T20:18:44.777Z,99.50
2023-05-14T20:21:11.960Z,99.30
2023-05-14T20:23:38.937Z,99.30
2023-05-14T20:26:05.971Z,99.90
2023-05-14T20:28:32.953Z,99.50
2023-05-14T20:31:01.239Z,99.60
2023-05-14T20:33:29.171Z,99.90
2023-05-14T20:35:56.687Z,99.90
2023-05-14T20:38:25.668Z,99.90
2023-05-14T20:40:52.634Z,99.90
2023-05-14T20:43:19.603Z,99.90
2023-05-14T20:45:46.659Z,99.90
2023-05-14T20:48:16.370Z,99.90
2023-05-14T20:50:44.389Z,99.90
2023-05-14T20:53:11.278Z,99.90
2023-05-14T20:55:39.417Z,99.90
2023-05-14T20:58:06.461Z,99.90
2023-05-14T21:00:33.495Z,99.90
2023-05-14T21:03:00.799Z,99.90
2023-05-14T21:05:28.486Z,99.90
2023-05-14T21:07:55.482Z,99.90
2023-05-14T21:10:22.685Z,99.90
2023-05-14T21:12:49.980Z,99.90
2023-05-14T21:15:17.080Z,99.90
2023-05-14T21:17:44.080Z,99.90
2023-05-14T21:20:13.386Z,99.90
2023-05-14T21:22:40.461Z,99.90
2023-05-14T21:25:08.059Z,99.90
2023-05-14T21:27:35.304Z,99.90
2023-05-14T21:30:02.587Z,99.90
2023-05-14T21:32:29.611Z,99.90
2023-05-14T21:34:56.659Z,99.90
2023-05-14T21:37:23.578Z,99.90
2023-05-14T21:39:50.973Z,99.90
2023-05-14T21:42:20.837Z,99.90
2023-05-14T21:44:47.921Z,99.90
2023-05-14T21:47:16.181Z,99.90
2023-05-14T21:49:43.380Z,99.90
2023-05-14T21:52:10.794Z,99.90
2023-05-14T21:54:37.856Z,99.90
2023-05-14T21:57:05.212Z,99.90
2023-05-14T21:59:33.929Z,99.90
2023-05-14T22:04:30.773Z,99.90
2023-05-14T22:06:57.731Z,99.90
2023-05-14T22:09:24.910Z,99.90
2023-05-14T22:11:51.766Z,99.90
2023-05-14T22:14:18.721Z,99.90
2023-05-14T22:16:45.803Z,99.90
2023-05-14T22:19:12.930Z,99.90
2023-05-14T22:21:40.051Z,99.90
2023-05-14T22:24:07.487Z,99.90
2023-05-14T22:26:35.222Z,99.90
2023-05-14T22:29:02.281Z,99.90
2023-05-14T22:31:29.952Z,99.90
2023-05-14T22:33:56.981Z,99.90
2023-05-14T22:36:23.948Z,99.90
2023-05-14T22:38:50.910Z,99.90
2023-05-14T22:41:17.887Z,99.90
2023-05-14T22:43:45.017Z,99.90
2023-05-14T22:46:12.074Z,99.90
2023-05-14T22:48:39.121Z,99.90
2023-05-14T22:51:06.131Z,99.90
2023-05-14T22:53:33.139Z,99.90
2023-05-14T22:56:00.314Z,99.90
2023-05-14T22:58:27.205Z,99.90
2023-05-14T23:00:54.116Z,99.90
2023-05-14T23:03:21.207Z,99.90
2023-05-14T23:05:49.222Z,99.90
2023-05-14T23:08:16.288Z,99.90
2023-05-14T23:10:43.275Z,99.90
2023-05-14T23:13:10.187Z,99.90
2023-05-14T23:15:38.774Z,99.90
2023-05-14T23:18:05.961Z,99.90
2023-05-14T23:20:33.005Z,99.90
2023-05-14T23:22:59.908Z,99.90
2023-05-14T23:25:26.938Z,99.90
2023-05-14T23:27:53.911Z,99.90
2023-05-14T23:30:20.920Z,99.90
2023-05-14T23:32:47.894Z,99.90
2023-05-14T23:35:14.934Z,99.90
2023-05-14T23:37:47.068Z,99.90
2023-05-14T23:40:15.643Z,99.90
2023-05-14T23:42:43.490Z,99.90
2023-05-14T23:45:13.029Z,99.90
2023-05-14T23:47:41.194Z,99.90
2023-05-14T23:50:08.863Z,99.90
2023-05-14T23:52:36.609Z,99.90
2023-05-14T23:55:04.318Z,99.90
2023-05-14T23:57:31.273Z,99.90
2023-05-14T23:59:59.279Z,99.90
